sensor_id;sensor_type;location;lat;lon;timestamp;temperature;humidity
19256;DHT22;9762;52.490;13.410;2023-04-03T00:01:29;5.60;86.70
19256;DHT22;9762;52.490;13.410;2023-04-03T00:03:55;5.70;86.00
19256;DHT22;9762;52.490;13.410;2023-04-03T00:06:21;5.70;85.80
19256;DHT22;9762;52.490;13.410;2023-04-03T00:08:47;5.70;85.60
19256;DHT22;9762;52.490;13.410;2023-04-03T00:11:13;5.70;85.70
19256;DHT22;9762;52.490;13.410;2023-04-03T00:13:39;5.70;85.60
19256;DHT22;9762;52.490;13.410;2023-04-03T00:16:06;5.80;85.70
19256;DHT22;9762;52.490;13.410;2023-04-03T00:18:32;5.80;85.50
19256;DHT22;9762;52.490;13.410;2023-04-03T00:20:58;5.80;85.40
19256;DHT22;9762;52.490;13.410;2023-04-03T00:23:23;5.80;85.00
19256;DHT22;9762;52.490;13.410;2023-04-03T00:25:51;5.90;85.10
19256;DHT22;9762;52.490;13.410;2023-04-03T00:28:17;6.00;84.60
19256;DHT22;9762;52.490;13.410;2023-04-03T00:30:43;6.10;84.40
19256;DHT22;9762;52.490;13.410;2023-04-03T00:33:12;6.10;83.80
19256;DHT22;9762;52.490;13.410;2023-04-03T00:35:38;6.10;83.90
19256;DHT22;9762;52.490;13.410;2023-04-03T00:38:03;6.10;83.70
19256;DHT22;9762;52.490;13.410;2023-04-03T00:40:34;6.10;83.90
19256;DHT22;9762;52.490;13.410;2023-04-03T00:43:00;6.10;83.60
19256;DHT22;9762;52.490;13.410;2023-04-03T00:45:36;6.10;84.00
19256;DHT22;9762;52.490;13.410;2023-04-03T00:48:04;6.20;84.00
19256;DHT22;9762;52.490;13.410;2023-04-03T00:50:32;6.20;83.60
19256;DHT22;9762;52.490;13.410;2023-04-03T00:53:00;6.30;83.30
19256;DHT22;9762;52.490;13.410;2023-04-03T00:55:26;6.30;83.20
19256;DHT22;9762;52.490;13.410;2023-04-03T00:57:53;6.30;83.10
19256;DHT22;9762;52.490;13.410;2023-04-03T01:00:20;6.30;83.10
19256;DHT22;9762;52.490;13.410;2023-04-03T01:02:48;6.30;83.10
19256;DHT22;9762;52.490;13.410;2023-04-03T01:05:16;6.30;82.70
19256;DHT22;9762;52.490;13.410;2023-04-03T01:07:42;6.30;82.60
19256;DHT22;9762;52.490;13.410;2023-04-03T01:10:11;6.30;82.20
19256;DHT22;9762;52.490;13.410;2023-04-03T01:12:39;6.30;82.50
19256;DHT22;9762;52.490;13.410;2023-04-03T01:15:07;6.30;82.70
19256;DHT22;9762;52.490;13.410;2023-04-03T01:17:39;6.30;82.70
19256;DHT22;9762;52.490;13.410;2023-04-03T01:20:25;6.30;82.70
19256;DHT22;9762;52.490;13.410;2023-04-03T01:25:49;6.20;82.70
19256;DHT22;9762;52.490;13.410;2023-04-03T01:28:30;6.30;82.70
19256;DHT22;9762;52.490;13.410;2023-04-03T01:33:37;6.30;82.50
19256;DHT22;9762;52.490;13.410;2023-04-03T01:36:04;6.40;82.60
19256;DHT22;9762;52.490;13.410;2023-04-03T01:38:30;6.40;82.50
19256;DHT22;9762;52.490;13.410;2023-04-03T01:40:56;6.40;82.50
19256;DHT22;9762;52.490;13.410;2023-04-03T01:43:21;6.40;82.40
19256;DHT22;9762;52.490;13.410;2023-04-03T01:45:47;6.40;82.20
19256;DHT22;9762;52.490;13.410;2023-04-03T01:48:15;6.50;82.30
19256;DHT22;9762;52.490;13.410;2023-04-03T01:50:40;6.50;83.10
19256;DHT22;9762;52.490;13.410;2023-04-03T01:53:06;6.50;82.10
19256;DHT22;9762;52.490;13.410;2023-04-03T01:55:32;6.60;82.00
19256;DHT22;9762;52.490;13.410;2023-04-03T01:57:57;6.60;81.90
19256;DHT22;9762;52.490;13.410;2023-04-03T02:00:23;6.70;81.90
19256;DHT22;9762;52.490;13.410;2023-04-03T02:02:49;6.70;82.00
19256;DHT22;9762;52.490;13.410;2023-04-03T02:05:15;6.70;81.90
19256;DHT22;9762;52.490;13.410;2023-04-03T02:07:40;6.70;81.80
19256;DHT22;9762;52.490;13.410;2023-04-03T02:10:06;6.70;82.00
19256;DHT22;9762;52.490;13.410;2023-04-03T02:12:32;6.60;82.20
19256;DHT22;9762;52.490;13.410;2023-04-03T02:14:58;6.60;82.40
19256;DHT22;9762;52.490;13.410;2023-04-03T02:17:23;6.60;82.30
19256;DHT22;9762;52.490;13.410;2023-04-03T02:19:49;6.50;82.60
19256;DHT22;9762;52.490;13.410;2023-04-03T02:22:14;6.60;82.70
19256;DHT22;9762;52.490;13.410;2023-04-03T02:24:40;6.60;82.70
19256;DHT22;9762;52.490;13.410;2023-04-03T02:27:06;6.60;82.70
19256;DHT22;9762;52.490;13.410;2023-04-03T02:29:32;6.60;82.80
19256;DHT22;9762;52.490;13.410;2023-04-03T02:31:57;6.60;82.80
19256;DHT22;9762;52.490;13.410;2023-04-03T02:34:23;6.60;82.70
19256;DHT22;9762;52.490;13.410;2023-04-03T02:36:49;6.60;82.70
19256;DHT22;9762;52.490;13.410;2023-04-03T02:39:14;6.60;82.70
19256;DHT22;9762;52.490;13.410;2023-04-03T02:41:40;6.60;82.70
19256;DHT22;9762;52.490;13.410;2023-04-03T02:44:08;6.60;82.70
19256;DHT22;9762;52.490;13.410;2023-04-03T02:46:34;6.60;82.60
19256;DHT22;9762;52.490;13.410;2023-04-03T02:49:00;6.60;82.70
19256;DHT22;9762;52.490;13.410;2023-04-03T02:51:25;6.60;82.60
19256;DHT22;9762;52.490;13.410;2023-04-03T02:53:51;6.60;82.50
19256;DHT22;9762;52.490;13.410;2023-04-03T02:56:17;6.60;83.20
19256;DHT22;9762;52.490;13.410;2023-04-03T02:58:44;6.60;82.30
19256;DHT22;9762;52.490;13.410;2023-04-03T03:01:10;6.70;82.50
19256;DHT22;9762;52.490;13.410;2023-04-03T03:03:36;6.70;82.30
19256;DHT22;9762;52.490;13.410;2023-04-03T03:06:11;6.70;82.30
19256;DHT22;9762;52.490;13.410;2023-04-03T03:08:37;6.70;82.40
19256;DHT22;9762;52.490;13.410;2023-04-03T03:11:03;6.70;82.40
19256;DHT22;9762;52.490;13.410;2023-04-03T03:13:29;6.70;82.50
19256;DHT22;9762;52.490;13.410;2023-04-03T03:15:55;6.70;82.40
19256;DHT22;9762;52.490;13.410;2023-04-03T03:18:21;6.70;82.30
19256;DHT22;9762;52.490;13.410;2023-04-03T03:20:50;6.70;82.30
19256;DHT22;9762;52.490;13.410;2023-04-03T03:23:16;6.70;82.30
19256;DHT22;9762;52.490;13.410;2023-04-03T03:25:41;6.70;82.40
19256;DHT22;9762;52.490;13.410;2023-04-03T03:28:07;6.60;82.50
19256;DHT22;9762;52.490;13.410;2023-04-03T03:30:33;6.60;82.60
19256;DHT22;9762;52.490;13.410;2023-04-03T03:33:00;6.60;82.60
19256;DHT22;9762;52.490;13.410;2023-04-03T03:35:26;6.60;82.70
19256;DHT22;9762;52.490;13.410;2023-04-03T03:37:51;6.60;82.60
19256;DHT22;9762;52.490;13.410;2023-04-03T03:40:17;6.60;82.60
19256;DHT22;9762;52.490;13.410;2023-04-03T03:42:42;6.60;82.70
19256;DHT22;9762;52.490;13.410;2023-04-03T03:45:08;6.60;82.70
19256;DHT22;9762;52.490;13.410;2023-04-03T03:47:34;6.60;82.70
19256;DHT22;9762;52.490;13.410;2023-04-03T03:50:01;6.60;82.70
19256;DHT22;9762;52.490;13.410;2023-04-03T03:52:26;6.50;82.70
19256;DHT22;9762;52.490;13.410;2023-04-03T03:54:52;6.50;82.70
19256;DHT22;9762;52.490;13.410;2023-04-03T03:57:18;6.50;82.90
19256;DHT22;9762;52.490;13.410;2023-04-03T03:59:44;6.50;83.00
19256;DHT22;9762;52.490;13.410;2023-04-03T04:02:10;6.40;83.00
19256;DHT22;9762;52.490;13.410;2023-04-03T04:04:36;6.40;83.20
19256;DHT22;9762;52.490;13.410;2023-04-03T04:07:02;6.40;83.20
19256;DHT22;9762;52.490;13.410;2023-04-03T04:09:27;6.40;83.20
19256;DHT22;9762;52.490;13.410;2023-04-03T04:11:53;6.30;83.20
19256;DHT22;9762;52.490;13.410;2023-04-03T04:14:19;6.40;83.30
19256;DHT22;9762;52.490;13.410;2023-04-03T04:16:49;6.30;83.30
19256;DHT22;9762;52.490;13.410;2023-04-03T04:19:15;6.30;83.50
19256;DHT22;9762;52.490;13.410;2023-04-03T04:21:40;6.30;83.40
19256;DHT22;9762;52.490;13.410;2023-04-03T04:24:07;6.40;83.50
19256;DHT22;9762;52.490;13.410;2023-04-03T04:26:33;6.30;83.60
19256;DHT22;9762;52.490;13.410;2023-04-03T04:28:59;6.30;83.60
19256;DHT22;9762;52.490;13.410;2023-04-03T04:31:25;6.30;83.80
19256;DHT22;9762;52.490;13.410;2023-04-03T04:33:50;6.30;83.90
19256;DHT22;9762;52.490;13.410;2023-04-03T04:36:16;6.30;83.80
19256;DHT22;9762;52.490;13.410;2023-04-03T04:38:42;6.30;83.90
19256;DHT22;9762;52.490;13.410;2023-04-03T04:41:07;6.30;83.80
19256;DHT22;9762;52.490;13.410;2023-04-03T04:43:33;6.20;84.70
19256;DHT22;9762;52.490;13.410;2023-04-03T04:46:04;6.20;84.10
19256;DHT22;9762;52.490;13.410;2023-04-03T04:48:30;6.20;84.50
19256;DHT22;9762;52.490;13.410;2023-04-03T04:50:55;6.30;84.20
19256;DHT22;9762;52.490;13.410;2023-04-03T04:53:21;6.30;84.10
19256;DHT22;9762;52.490;13.410;2023-04-03T04:55:47;6.30;84.20
19256;DHT22;9762;52.490;13.410;2023-04-03T04:58:13;6.30;84.10
19256;DHT22;9762;52.490;13.410;2023-04-03T05:00:38;6.30;84.50
19256;DHT22;9762;52.490;13.410;2023-04-03T05:03:04;6.30;84.30
19256;DHT22;9762;52.490;13.410;2023-04-03T05:05:30;6.30;84.30
19256;DHT22;9762;52.490;13.410;2023-04-03T05:07:56;6.40;84.40
19256;DHT22;9762;52.490;13.410;2023-04-03T05:10:21;6.40;85.00
19256;DHT22;9762;52.490;13.410;2023-04-03T05:12:47;6.40;85.20
19256;DHT22;9762;52.490;13.410;2023-04-03T05:15:13;6.40;85.10
19256;DHT22;9762;52.490;13.410;2023-04-03T05:17:38;6.40;85.00
19256;DHT22;9762;52.490;13.410;2023-04-03T05:20:05;6.40;84.90
19256;DHT22;9762;52.490;13.410;2023-04-03T05:22:31;6.40;85.10
19256;DHT22;9762;52.490;13.410;2023-04-03T05:24:56;6.40;85.20
19256;DHT22;9762;52.490;13.410;2023-04-03T05:27:22;6.40;85.40
19256;DHT22;9762;52.490;13.410;2023-04-03T05:29:49;6.40;85.20
19256;DHT22;9762;52.490;13.410;2023-04-03T05:32:15;6.50;85.10
19256;DHT22;9762;52.490;13.410;2023-04-03T05:34:41;6.50;86.40
19256;DHT22;9762;52.490;13.410;2023-04-03T05:37:07;6.50;87.30
19256;DHT22;9762;52.490;13.410;2023-04-03T05:39:33;6.60;86.70
19256;DHT22;9762;52.490;13.410;2023-04-03T05:41:59;6.60;85.90
19256;DHT22;9762;52.490;13.410;2023-04-03T05:44:25;6.70;85.30
19256;DHT22;9762;52.490;13.410;2023-04-03T05:46:50;6.70;85.10
19256;DHT22;9762;52.490;13.410;2023-04-03T05:49:16;6.70;84.80
19256;DHT22;9762;52.490;13.410;2023-04-03T05:51:42;6.70;84.70
19256;DHT22;9762;52.490;13.410;2023-04-03T05:54:13;6.80;84.50
19256;DHT22;9762;52.490;13.410;2023-04-03T05:56:41;6.80;84.60
19256;DHT22;9762;52.490;13.410;2023-04-03T05:59:06;6.80;84.70
19256;DHT22;9762;52.490;13.410;2023-04-03T06:01:33;6.80;84.40
19256;DHT22;9762;52.490;13.410;2023-04-03T06:03:59;6.80;84.40
19256;DHT22;9762;52.490;13.410;2023-04-03T06:06:25;6.80;84.10
19256;DHT22;9762;52.490;13.410;2023-04-03T06:08:51;6.80;84.10
19256;DHT22;9762;52.490;13.410;2023-04-03T06:11:17;6.70;84.30
19256;DHT22;9762;52.490;13.410;2023-04-03T06:13:43;6.70;84.20
19256;DHT22;9762;52.490;13.410;2023-04-03T06:16:12;6.70;84.10
19256;DHT22;9762;52.490;13.410;2023-04-03T06:18:39;6.60;84.20
19256;DHT22;9762;52.490;13.410;2023-04-03T06:21:05;6.60;84.50
19256;DHT22;9762;52.490;13.410;2023-04-03T06:23:33;6.60;84.50
19256;DHT22;9762;52.490;13.410;2023-04-03T06:25:58;6.70;84.30
19256;DHT22;9762;52.490;13.410;2023-04-03T06:28:25;6.70;83.70
19256;DHT22;9762;52.490;13.410;2023-04-03T06:30:50;6.70;83.80
19256;DHT22;9762;52.490;13.410;2023-04-03T06:33:16;6.70;83.80
19256;DHT22;9762;52.490;13.410;2023-04-03T06:35:42;6.80;83.80
19256;DHT22;9762;52.490;13.410;2023-04-03T06:38:07;6.90;83.30
19256;DHT22;9762;52.490;13.410;2023-04-03T06:40:35;6.90;82.90
19256;DHT22;9762;52.490;13.410;2023-04-03T06:43:01;7.00;82.80
19256;DHT22;9762;52.490;13.410;2023-04-03T06:45:27;7.00;82.60
19256;DHT22;9762;52.490;13.410;2023-04-03T06:47:53;7.00;82.20
19256;DHT22;9762;52.490;13.410;2023-04-03T06:50:18;7.10;82.20
19256;DHT22;9762;52.490;13.410;2023-04-03T06:52:44;7.10;81.80
19256;DHT22;9762;52.490;13.410;2023-04-03T06:55:11;7.10;81.70
19256;DHT22;9762;52.490;13.410;2023-04-03T06:57:37;7.10;81.80
19256;DHT22;9762;52.490;13.410;2023-04-03T07:00:04;7.10;80.50
19256;DHT22;9762;52.490;13.410;2023-04-03T07:02:30;7.00;80.30
19256;DHT22;9762;52.490;13.410;2023-04-03T07:04:56;6.90;80.60
19256;DHT22;9762;52.490;13.410;2023-04-03T07:07:22;6.90;81.10
19256;DHT22;9762;52.490;13.410;2023-04-03T07:09:47;6.80;79.30
19256;DHT22;9762;52.490;13.410;2023-04-03T07:12:13;6.70;78.70
19256;DHT22;9762;52.490;13.410;2023-04-03T07:14:39;6.60;78.00
19256;DHT22;9762;52.490;13.410;2023-04-03T07:17:05;6.60;78.00
19256;DHT22;9762;52.490;13.410;2023-04-03T07:19:30;6.50;78.60
19256;DHT22;9762;52.490;13.410;2023-04-03T07:21:56;6.60;78.70
19256;DHT22;9762;52.490;13.410;2023-04-03T07:24:22;6.60;78.60
19256;DHT22;9762;52.490;13.410;2023-04-03T07:26:52;6.70;78.10
19256;DHT22;9762;52.490;13.410;2023-04-03T07:29:18;6.60;76.90
19256;DHT22;9762;52.490;13.410;2023-04-03T07:31:45;6.60;77.00
19256;DHT22;9762;52.490;13.410;2023-04-03T07:34:11;6.70;77.30
19256;DHT22;9762;52.490;13.410;2023-04-03T07:36:37;6.80;76.80
19256;DHT22;9762;52.490;13.410;2023-04-03T07:39:03;6.80;76.70
19256;DHT22;9762;52.490;13.410;2023-04-03T07:41:29;6.90;76.20
19256;DHT22;9762;52.490;13.410;2023-04-03T07:43:55;6.80;78.00
19256;DHT22;9762;52.490;13.410;2023-04-03T07:46:22;6.90;79.00
19256;DHT22;9762;52.490;13.410;2023-04-03T07:48:48;6.90;77.00
19256;DHT22;9762;52.490;13.410;2023-04-03T07:51:13;6.90;75.70
19256;DHT22;9762;52.490;13.410;2023-04-03T07:53:40;6.80;75.50
19256;DHT22;9762;52.490;13.410;2023-04-03T07:56:06;6.90;75.90
19256;DHT22;9762;52.490;13.410;2023-04-03T07:58:32;7.00;75.50
19256;DHT22;9762;52.490;13.410;2023-04-03T08:00:58;7.20;76.20
19256;DHT22;9762;52.490;13.410;2023-04-03T08:03:23;7.30;74.80
19256;DHT22;9762;52.490;13.410;2023-04-03T08:05:50;7.30;72.60
19256;DHT22;9762;52.490;13.410;2023-04-03T08:08:19;7.30;71.90
19256;DHT22;9762;52.490;13.410;2023-04-03T08:10:52;7.20;72.20
19256;DHT22;9762;52.490;13.410;2023-04-03T08:13:18;7.20;72.20
19256;DHT22;9762;52.490;13.410;2023-04-03T08:15:44;7.10;72.20
19256;DHT22;9762;52.490;13.410;2023-04-03T08:18:10;7.10;72.90
19256;DHT22;9762;52.490;13.410;2023-04-03T08:20:37;7.10;73.00
19256;DHT22;9762;52.490;13.410;2023-04-03T08:23:02;7.30;73.10
19256;DHT22;9762;52.490;13.410;2023-04-03T08:25:28;7.40;73.60
19256;DHT22;9762;52.490;13.410;2023-04-03T08:27:55;7.50;73.20
19256;DHT22;9762;52.490;13.410;2023-04-03T08:30:21;7.60;72.30
19256;DHT22;9762;52.490;13.410;2023-04-03T08:32:47;7.60;72.30
19256;DHT22;9762;52.490;13.410;2023-04-03T08:35:12;7.60;72.30
19256;DHT22;9762;52.490;13.410;2023-04-03T08:37:38;7.60;72.00
19256;DHT22;9762;52.490;13.410;2023-04-03T08:40:06;7.60;72.10
19256;DHT22;9762;52.490;13.410;2023-04-03T08:48:19;7.80;70.50
19256;DHT22;9762;52.490;13.410;2023-04-03T08:50:47;7.70;70.10
19256;DHT22;9762;52.490;13.410;2023-04-03T08:53:17;7.70;70.60
19256;DHT22;9762;52.490;13.410;2023-04-03T08:55:49;7.50;70.70
19256;DHT22;9762;52.490;13.410;2023-04-03T08:58:19;7.70;71.10
19256;DHT22;9762;52.490;13.410;2023-04-03T09:00:55;7.80;70.20
19256;DHT22;9762;52.490;13.410;2023-04-03T09:03:23;7.80;70.10
19256;DHT22;9762;52.490;13.410;2023-04-03T09:14:02;8.00;68.20
19256;DHT22;9762;52.490;13.410;2023-04-03T09:16:53;7.90;68.80
19256;DHT22;9762;52.490;13.410;2023-04-03T09:22:16;7.90;66.60
19256;DHT22;9762;52.490;13.410;2023-04-03T09:25:28;7.90;67.00
19256;DHT22;9762;52.490;13.410;2023-04-03T09:27:33;8.00;67.50
19256;DHT22;9762;52.490;13.410;2023-04-03T09:29:59;8.20;67.00
19256;DHT22;9762;52.490;13.410;2023-04-03T09:32:30;8.30;65.90
19256;DHT22;9762;52.490;13.410;2023-04-03T09:35:01;8.40;64.80
19256;DHT22;9762;52.490;13.410;2023-04-03T09:37:43;8.40;64.80
19256;DHT22;9762;52.490;13.410;2023-04-03T09:42:57;8.60;65.10
19256;DHT22;9762;52.490;13.410;2023-04-03T09:45:29;8.80;64.10
19256;DHT22;9762;52.490;13.410;2023-04-03T09:53:48;8.70;63.10
19256;DHT22;9762;52.490;13.410;2023-04-03T09:58:45;8.70;62.30
19256;DHT22;9762;52.490;13.410;2023-04-03T10:01:30;8.60;62.00
19256;DHT22;9762;52.490;13.410;2023-04-03T10:04:10;8.50;62.30
19256;DHT22;9762;52.490;13.410;2023-04-03T10:06:39;8.40;62.90
19256;DHT22;9762;52.490;13.410;2023-04-03T10:12:06;8.30;64.10
19256;DHT22;9762;52.490;13.410;2023-04-03T10:14:34;8.40;64.80
19256;DHT22;9762;52.490;13.410;2023-04-03T10:17:18;8.40;65.00
19256;DHT22;9762;52.490;13.410;2023-04-03T10:23:18;8.80;64.70
19256;DHT22;9762;52.490;13.410;2023-04-03T10:31:34;9.30;64.60
19256;DHT22;9762;52.490;13.410;2023-04-03T10:39:30;9.50;63.00
19256;DHT22;9762;52.490;13.410;2023-04-03T10:44:56;9.80;62.50
19256;DHT22;9762;52.490;13.410;2023-04-03T10:53:24;10.10;61.10
19256;DHT22;9762;52.490;13.410;2023-04-03T10:56:10;10.30;60.70
19256;DHT22;9762;52.490;13.410;2023-04-03T10:58:44;10.30;59.20
19256;DHT22;9762;52.490;13.410;2023-04-03T11:01:22;10.20;59.90
19256;DHT22;9762;52.490;13.410;2023-04-03T11:03:57;10.10;59.70
19256;DHT22;9762;52.490;13.410;2023-04-03T11:06:25;10.00;59.50
19256;DHT22;9762;52.490;13.410;2023-04-03T11:09:34;9.90;59.80
19256;DHT22;9762;52.490;13.410;2023-04-03T11:11:42;9.90;59.80
19256;DHT22;9762;52.490;13.410;2023-04-03T11:14:18;9.70;60.30
19256;DHT22;9762;52.490;13.410;2023-04-03T11:16:50;9.70;61.30
19256;DHT22;9762;52.490;13.410;2023-04-03T11:19:22;9.70;60.80
19256;DHT22;9762;52.490;13.410;2023-04-03T11:21:57;9.60;61.90
19256;DHT22;9762;52.490;13.410;2023-04-03T11:24:29;9.60;61.30
19256;DHT22;9762;52.490;13.410;2023-04-03T11:26:57;9.70;61.80
19256;DHT22;9762;52.490;13.410;2023-04-03T11:29:29;9.80;61.20
19256;DHT22;9762;52.490;13.410;2023-04-03T11:32:11;9.70;61.10
19256;DHT22;9762;52.490;13.410;2023-04-03T11:34:44;9.60;61.30
19256;DHT22;9762;52.490;13.410;2023-04-03T11:39:39;9.60;61.60
19256;DHT22;9762;52.490;13.410;2023-04-03T11:42:35;9.50;62.10
19256;DHT22;9762;52.490;13.410;2023-04-03T11:48:00;9.60;63.00
19256;DHT22;9762;52.490;13.410;2023-04-03T12:00:54;9.70;63.20
19256;DHT22;9762;52.490;13.410;2023-04-03T12:13:39;9.70;63.10
19256;DHT22;9762;52.490;13.410;2023-04-03T12:16:07;9.60;62.50
19256;DHT22;9762;52.490;13.410;2023-04-03T12:29:18;9.60;62.80
19256;DHT22;9762;52.490;13.410;2023-04-03T12:45:44;9.90;63.30
19256;DHT22;9762;52.490;13.410;2023-04-03T12:48:17;10.00;63.20
19256;DHT22;9762;52.490;13.410;2023-04-03T12:50:45;10.20;62.20
19256;DHT22;9762;52.490;13.410;2023-04-03T12:53:18;10.30;60.20
19256;DHT22;9762;52.490;13.410;2023-04-03T12:55:44;10.40;59.90
19256;DHT22;9762;52.490;13.410;2023-04-03T12:58:22;10.30;59.00
19256;DHT22;9762;52.490;13.410;2023-04-03T13:01:16;10.20;59.60
19256;DHT22;9762;52.490;13.410;2023-04-03T13:03:47;10.20;59.50
19256;DHT22;9762;52.490;13.410;2023-04-03T13:08:57;9.90;60.00
19256;DHT22;9762;52.490;13.410;2023-04-03T13:11:25;9.80;60.30
19256;DHT22;9762;52.490;13.410;2023-04-03T13:14:03;9.80;60.20
19256;DHT22;9762;52.490;13.410;2023-04-03T13:16:31;9.90;60.60
19256;DHT22;9762;52.490;13.410;2023-04-03T13:18:57;10.00;60.80
19256;DHT22;9762;52.490;13.410;2023-04-03T13:21:28;10.00;60.60
19256;DHT22;9762;52.490;13.410;2023-04-03T13:23:58;9.90;61.10
19256;DHT22;9762;52.490;13.410;2023-04-03T13:26:28;9.90;61.30
19256;DHT22;9762;52.490;13.410;2023-04-03T13:29:02;10.00;61.70
19256;DHT22;9762;52.490;13.410;2023-04-03T13:31:37;10.10;61.50
19256;DHT22;9762;52.490;13.410;2023-04-03T13:36:44;10.20;61.20
19256;DHT22;9762;52.490;13.410;2023-04-03T13:41:38;10.10;60.70
19256;DHT22;9762;52.490;13.410;2023-04-03T13:44:26;10.10;61.00
19256;DHT22;9762;52.490;13.410;2023-04-03T13:47:37;10.20;61.00
19256;DHT22;9762;52.490;13.410;2023-04-03T13:49:45;10.20;61.10
19256;DHT22;9762;52.490;13.410;2023-04-03T13:52:25;10.20;61.20
19256;DHT22;9762;52.490;13.410;2023-04-03T13:54:55;10.20;60.50
19256;DHT22;9762;52.490;13.410;2023-04-03T13:57:22;10.10;60.80
19256;DHT22;9762;52.490;13.410;2023-04-03T13:59:47;10.20;61.40
19256;DHT22;9762;52.490;13.410;2023-04-03T14:02:32;10.10;61.20
19256;DHT22;9762;52.490;13.410;2023-04-03T14:05:00;10.10;61.60
19256;DHT22;9762;52.490;13.410;2023-04-03T14:07:28;10.10;62.00
19256;DHT22;9762;52.490;13.410;2023-04-03T14:09:55;10.10;62.10
19256;DHT22;9762;52.490;13.410;2023-04-03T14:12:36;10.10;62.90
19256;DHT22;9762;52.490;13.410;2023-04-03T14:15:06;10.10;62.40
19256;DHT22;9762;52.490;13.410;2023-04-03T14:17:36;10.10;62.80
19256;DHT22;9762;52.490;13.410;2023-04-03T14:20:02;10.00;63.60
19256;DHT22;9762;52.490;13.410;2023-04-03T14:22:31;9.90;64.30
19256;DHT22;9762;52.490;13.410;2023-04-03T14:24:58;10.00;63.70
19256;DHT22;9762;52.490;13.410;2023-04-03T14:27:27;10.10;62.60
19256;DHT22;9762;52.490;13.410;2023-04-03T14:29:55;10.20;62.10
19256;DHT22;9762;52.490;13.410;2023-04-03T14:32:22;10.30;61.70
19256;DHT22;9762;52.490;13.410;2023-04-03T14:34:50;10.40;61.10
19256;DHT22;9762;52.490;13.410;2023-04-03T14:37:19;10.60;60.70
19256;DHT22;9762;52.490;13.410;2023-04-03T14:39:47;10.90;61.00
19256;DHT22;9762;52.490;13.410;2023-04-03T14:42:19;11.30;76.00
19256;DHT22;9762;52.490;13.410;2023-04-03T14:44:45;11.60;60.50
19256;DHT22;9762;52.490;13.410;2023-04-03T14:47:13;11.80;60.40
19256;DHT22;9762;52.490;13.410;2023-04-03T14:49:39;12.00;60.10
19256;DHT22;9762;52.490;13.410;2023-04-03T14:52:05;12.10;59.10
19256;DHT22;9762;52.490;13.410;2023-04-03T14:54:31;12.20;59.00
19256;DHT22;9762;52.490;13.410;2023-04-03T14:56:58;12.20;59.00
19256;DHT22;9762;52.490;13.410;2023-04-03T14:59:25;12.20;58.30
19256;DHT22;9762;52.490;13.410;2023-04-03T15:01:51;12.10;58.60
19256;DHT22;9762;52.490;13.410;2023-04-03T15:04:19;12.10;58.40
19256;DHT22;9762;52.490;13.410;2023-04-03T15:06:46;12.00;58.40
19256;DHT22;9762;52.490;13.410;2023-04-03T15:09:30;11.90;58.70
19256;DHT22;9762;52.490;13.410;2023-04-03T15:11:55;11.90;59.10
19256;DHT22;9762;52.490;13.410;2023-04-03T15:14:22;11.70;59.60
19256;DHT22;9762;52.490;13.410;2023-04-03T15:16:48;11.40;60.30
19256;DHT22;9762;52.490;13.410;2023-04-03T15:19:14;11.30;60.90
19256;DHT22;9762;52.490;13.410;2023-04-03T15:21:39;11.20;61.40
19256;DHT22;9762;52.490;13.410;2023-04-03T15:24:05;11.10;61.80
19256;DHT22;9762;52.490;13.410;2023-04-03T15:26:32;10.90;62.10
19256;DHT22;9762;52.490;13.410;2023-04-03T15:28:58;10.80;62.40
19256;DHT22;9762;52.490;13.410;2023-04-03T15:31:23;10.70;63.00
19256;DHT22;9762;52.490;13.410;2023-04-03T15:33:49;10.60;63.00
19256;DHT22;9762;52.490;13.410;2023-04-03T15:36:15;10.70;63.30
19256;DHT22;9762;52.490;13.410;2023-04-03T15:38:40;10.70;63.30
19256;DHT22;9762;52.490;13.410;2023-04-03T15:41:06;10.70;63.40
19256;DHT22;9762;52.490;13.410;2023-04-03T15:43:32;10.60;63.60
19256;DHT22;9762;52.490;13.410;2023-04-03T15:45:59;10.40;64.40
19256;DHT22;9762;52.490;13.410;2023-04-03T15:48:26;10.20;65.10
19256;DHT22;9762;52.490;13.410;2023-04-03T15:50:52;10.10;65.50
19256;DHT22;9762;52.490;13.410;2023-04-03T15:53:18;10.10;65.60
19256;DHT22;9762;52.490;13.410;2023-04-03T15:55:44;10.10;65.50
19256;DHT22;9762;52.490;13.410;2023-04-03T15:58:10;10.10;65.40
19256;DHT22;9762;52.490;13.410;2023-04-03T16:00:37;10.10;65.40
19256;DHT22;9762;52.490;13.410;2023-04-03T16:03:16;10.10;65.40
19256;DHT22;9762;52.490;13.410;2023-04-03T16:05:42;10.10;65.10
19256;DHT22;9762;52.490;13.410;2023-04-03T16:08:08;10.10;64.90
19256;DHT22;9762;52.490;13.410;2023-04-03T16:10:35;10.00;64.60
19256;DHT22;9762;52.490;13.410;2023-04-03T16:13:01;10.00;64.90
19256;DHT22;9762;52.490;13.410;2023-04-03T16:15:27;10.00;64.90
19256;DHT22;9762;52.490;13.410;2023-04-03T16:17:54;10.00;65.20
19256;DHT22;9762;52.490;13.410;2023-04-03T16:20:20;10.00;65.10
19256;DHT22;9762;52.490;13.410;2023-04-03T16:22:47;10.00;65.20
19256;DHT22;9762;52.490;13.410;2023-04-03T16:25:13;10.00;65.10
19256;DHT22;9762;52.490;13.410;2023-04-03T16:27:39;10.10;65.30
19256;DHT22;9762;52.490;13.410;2023-04-03T16:30:05;10.10;65.10
19256;DHT22;9762;52.490;13.410;2023-04-03T16:32:32;10.10;65.70
19256;DHT22;9762;52.490;13.410;2023-04-03T16:34:58;10.10;65.20
19256;DHT22;9762;52.490;13.410;2023-04-03T16:37:24;10.10;65.20
19256;DHT22;9762;52.490;13.410;2023-04-03T16:39:50;10.20;64.80
19256;DHT22;9762;52.490;13.410;2023-04-03T16:42:16;10.20;65.00
19256;DHT22;9762;52.490;13.410;2023-04-03T16:44:42;10.20;65.00
19256;DHT22;9762;52.490;13.410;2023-04-03T16:47:08;10.20;64.80
19256;DHT22;9762;52.490;13.410;2023-04-03T16:49:34;10.20;64.70
19256;DHT22;9762;52.490;13.410;2023-04-03T16:52:02;10.20;64.80
19256;DHT22;9762;52.490;13.410;2023-04-03T16:54:28;10.30;65.00
19256;DHT22;9762;52.490;13.410;2023-04-03T16:56:54;10.20;65.20
19256;DHT22;9762;52.490;13.410;2023-04-03T17:01:47;9.90;93.30
19256;DHT22;9762;52.490;13.410;2023-04-03T17:06:39;9.60;65.90
19256;DHT22;9762;52.490;13.410;2023-04-03T17:09:05;9.60;67.40
19256;DHT22;9762;52.490;13.410;2023-04-03T17:11:31;9.50;68.60
19256;DHT22;9762;52.490;13.410;2023-04-03T17:13:57;9.40;68.00
19256;DHT22;9762;52.490;13.410;2023-04-03T17:16:24;9.40;68.70
19256;DHT22;9762;52.490;13.410;2023-04-03T17:18:52;9.40;68.30
19256;DHT22;9762;52.490;13.410;2023-04-03T17:21:18;9.40;68.20
19256;DHT22;9762;52.490;13.410;2023-04-03T17:23:47;9.50;68.10
19256;DHT22;9762;52.490;13.410;2023-04-03T17:26:14;9.50;68.10
19256;DHT22;9762;52.490;13.410;2023-04-03T17:28:40;9.50;68.10
19256;DHT22;9762;52.490;13.410;2023-04-03T17:31:06;9.60;68.10
19256;DHT22;9762;52.490;13.410;2023-04-03T17:33:32;9.60;68.10
19256;DHT22;9762;52.490;13.410;2023-04-03T17:36:00;9.70;68.20
19256;DHT22;9762;52.490;13.410;2023-04-03T17:38:27;9.60;68.90
19256;DHT22;9762;52.490;13.410;2023-04-03T17:41:01;9.60;68.30
19256;DHT22;9762;52.490;13.410;2023-04-03T17:43:28;9.50;68.40
19256;DHT22;9762;52.490;13.410;2023-04-03T17:45:56;9.50;68.70
19256;DHT22;9762;52.490;13.410;2023-04-03T17:48:31;9.50;68.90
19256;DHT22;9762;52.490;13.410;2023-04-03T17:50:57;9.50;69.00